sensor_id;sensor_type;location;lat;lon;timestamp;P1;durP1;ratioP1;P2;durP2;ratioP2
2896;SDS011;1458;49.728;9.228;2023-12-20T00:00:03;0.40;;;0.40;;
2896;SDS011;1458;49.728;9.228;2023-12-20T00:02:32;0.40;;;0.40;;
2896;SDS011;1458;49.728;9.228;2023-12-20T00:05:00;0.60;;;0.60;;
2896;SDS011;1458;49.728;9.228;2023-12-20T00:07:28;0.43;;;0.43;;
2896;SDS011;1458;49.728;9.228;2023-12-20T00:09:55;0.40;;;0.40;;
2896;SDS011;1458;49.728;9.228;2023-12-20T00:12:22;0.40;;;0.40;;
2896;SDS011;1458;49.728;9.228;2023-12-20T00:14:50;0.40;;;0.40;;
2896;SDS011;1458;49.728;9.228;2023-12-20T00:17:18;0.47;;;0.47;;
2896;SDS011;1458;49.728;9.228;2023-12-20T00:19:45;0.40;;;0.40;;
2896;SDS011;1458;49.728;9.228;2023-12-20T00:22:13;0.40;;;0.40;;
2896;SDS011;1458;49.728;9.228;2023-12-20T00:24:40;0.50;;;0.50;;
2896;SDS011;1458;49.728;9.228;2023-12-20T00:27:08;0.40;;;0.40;;
2896;SDS011;1458;49.728;9.228;2023-12-20T00:29:35;0.40;;;0.40;;
2896;SDS011;1458;49.728;9.228;2023-12-20T00:32:03;0.40;;;0.40;;
2896;SDS011;1458;49.728;9.228;2023-12-20T00:34:33;0.50;;;0.50;;
2896;SDS011;1458;49.728;9.228;2023-12-20T00:37:00;0.40;;;0.40;;
2896;SDS011;1458;49.728;9.228;2023-12-20T00:39:28;0.40;;;0.40;;
2896;SDS011;1458;49.728;9.228;2023-12-20T00:41:55;0.40;;;0.40;;
2896;SDS011;1458;49.728;9.228;2023-12-20T00:44:23;0.40;;;0.40;;
2896;SDS011;1458;49.728;9.228;2023-12-20T00:46:50;0.40;;;0.40;;
2896;SDS011;1458;49.728;9.228;2023-12-20T00:49:18;0.40;;;0.40;;
2896;SDS011;1458;49.728;9.228;2023-12-20T00:51:47;0.40;;;0.40;;
2896;SDS011;1458;49.728;9.228;2023-12-20T00:54:15;0.53;;;0.53;;
2896;SDS011;1458;49.728;9.228;2023-12-20T00:56:43;0.53;;;0.53;;
2896;SDS011;1458;49.728;9.228;2023-12-20T00:59:11;0.40;;;0.40;;
2896;SDS011;1458;49.728;9.228;2023-12-20T01:01:38;0.40;;;0.40;;
2896;SDS011;1458;49.728;9.228;2023-12-20T01:04:05;0.40;;;0.40;;
2896;SDS011;1458;49.728;9.228;2023-12-20T01:06:33;0.40;;;0.40;;
2896;SDS011;1458;49.728;9.228;2023-12-20T01:09:02;0.50;;;0.50;;
2896;SDS011;1458;49.728;9.228;2023-12-20T01:11:29;0.40;;;0.40;;
2896;SDS011;1458;49.728;9.228;2023-12-20T01:13:57;0.60;;;0.60;;
2896;SDS011;1458;49.728;9.228;2023-12-20T01:16:24;0.40;;;0.40;;
2896;SDS011;1458;49.728;9.228;2023-12-20T01:18:52;0.40;;;0.40;;
2896;SDS011;1458;49.728;9.228;2023-12-20T01:21:19;0.40;;;0.40;;
2896;SDS011;1458;49.728;9.228;2023-12-20T01:23:47;0.40;;;0.40;;
2896;SDS011;1458;49.728;9.228;2023-12-20T01:26:16;0.40;;;0.40;;
2896;SDS011;1458;49.728;9.228;2023-12-20T01:28:43;0.40;;;0.40;;
2896;SDS011;1458;49.728;9.228;2023-12-20T01:31:11;0.50;;;0.50;;
2896;SDS011;1458;49.728;9.228;2023-12-20T01:33:38;0.40;;;0.40;;
2896;SDS011;1458;49.728;9.228;2023-12-20T01:36:06;0.40;;;0.40;;
2896;SDS011;1458;49.728;9.228;2023-12-20T01:38:36;0.40;;;0.40;;
2896;SDS011;1458;49.728;9.228;2023-12-20T01:41:04;0.40;;;0.40;;
2896;SDS011;1458;49.728;9.228;2023-12-20T01:43:33;0.40;;;0.40;;
2896;SDS011;1458;49.728;9.228;2023-12-20T01:46:01;0.40;;;0.40;;
2896;SDS011;1458;49.728;9.228;2023-12-20T01:48:28;0.40;;;0.40;;
2896;SDS011;1458;49.728;9.228;2023-12-20T01:50:57;0.40;;;0.40;;
2896;SDS011;1458;49.728;9.228;2023-12-20T01:53:25;0.57;;;0.57;;
2896;SDS011;1458;49.728;9.228;2023-12-20T01:55:55;0.50;;;0.50;;
2896;SDS011;1458;49.728;9.228;2023-12-20T01:58:24;0.40;;;0.40;;
2896;SDS011;1458;49.728;9.228;2023-12-20T02:00:54;0.40;;;0.40;;
2896;SDS011;1458;49.728;9.228;2023-12-20T02:03:22;0.50;;;0.50;;
2896;SDS011;1458;49.728;9.228;2023-12-20T02:05:50;0.50;;;0.50;;
2896;SDS011;1458;49.728;9.228;2023-12-20T02:08:17;0.50;;;0.50;;
2896;SDS011;1458;49.728;9.228;2023-12-20T02:10:45;0.40;;;0.40;;
2896;SDS011;1458;49.728;9.228;2023-12-20T02:13:12;0.40;;;0.40;;
2896;SDS011;1458;49.728;9.228;2023-12-20T02:15:40;0.40;;;0.40;;
2896;SDS011;1458;49.728;9.228;2023-12-20T02:18:11;0.50;;;0.50;;
2896;SDS011;1458;49.728;9.228;2023-12-20T02:20:40;0.40;;;0.40;;
2896;SDS011;1458;49.728;9.228;2023-12-20T02:23:09;0.40;;;0.40;;
2896;SDS011;1458;49.728;9.228;2023-12-20T02:25:36;0.40;;;0.40;;
2896;SDS011;1458;49.728;9.228;2023-12-20T02:28:04;0.40;;;0.40;;
2896;SDS011;1458;49.728;9.228;2023-12-20T02:30:33;0.40;;;0.40;;
2896;SDS011;1458;49.728;9.228;2023-12-20T02:33:00;0.40;;;0.40;;
2896;SDS011;1458;49.728;9.228;2023-12-20T02:35:30;0.40;;;0.40;;
2896;SDS011;1458;49.728;9.228;2023-12-20T02:37:58;0.40;;;0.40;;
2896;SDS011;1458;49.728;9.228;2023-12-20T02:40:27;0.50;;;0.50;;
2896;SDS011;1458;49.728;9.228;2023-12-20T02:42:54;0.40;;;0.40;;
2896;SDS011;1458;49.728;9.228;2023-12-20T02:45:21;0.40;;;0.40;;
2896;SDS011;1458;49.728;9.228;2023-12-20T02:47:52;0.40;;;0.40;;
2896;SDS011;1458;49.728;9.228;2023-12-20T02:50:19;0.40;;;0.40;;
2896;SDS011;1458;49.728;9.228;2023-12-20T02:52:47;0.40;;;0.40;;
2896;SDS011;1458;49.728;9.228;2023-12-20T02:55:15;0.40;;;0.40;;
2896;SDS011;1458;49.728;9.228;2023-12-20T02:57:44;0.50;;;0.50;;
2896;SDS011;1458;49.728;9.228;2023-12-20T03:00:12;0.40;;;0.40;;
2896;SDS011;1458;49.728;9.228;2023-12-20T03:02:40;0.40;;;0.40;;
2896;SDS011;1458;49.728;9.228;2023-12-20T03:05:07;0.40;;;0.40;;
2896;SDS011;1458;49.728;9.228;2023-12-20T03:07:36;0.40;;;0.40;;
2896;SDS011;1458;49.728;9.228;2023-12-20T03:10:04;0.50;;;0.50;;
2896;SDS011;1458;49.728;9.228;2023-12-20T03:12:34;0.40;;;0.40;;
2896;SDS011;1458;49.728;9.228;2023-12-20T03:15:03;0.50;;;0.50;;
2896;SDS011;1458;49.728;9.228;2023-12-20T03:17:31;0.40;;;0.40;;
2896;SDS011;1458;49.728;9.228;2023-12-20T03:19:59;0.60;;;0.60;;
2896;SDS011;1458;49.728;9.228;2023-12-20T03:22:26;0.40;;;0.40;;
2896;SDS011;1458;49.728;9.228;2023-12-20T03:24:54;0.50;;;0.50;;
2896;SDS011;1458;49.728;9.228;2023-12-20T03:27:21;0.40;;;0.40;;
2896;SDS011;1458;49.728;9.228;2023-12-20T03:29:49;0.40;;;0.40;;
2896;SDS011;1458;49.728;9.228;2023-12-20T03:32:18;0.40;;;0.40;;
2896;SDS011;1458;49.728;9.228;2023-12-20T03:34:45;0.40;;;0.40;;
2896;SDS011;1458;49.728;9.228;2023-12-20T03:37:13;0.40;;;0.40;;
2896;SDS011;1458;49.728;9.228;2023-12-20T03:39:41;0.50;;;0.50;;
2896;SDS011;1458;49.728;9.228;2023-12-20T03:42:08;0.40;;;0.40;;
2896;SDS011;1458;49.728;9.228;2023-12-20T03:44:38;0.43;;;0.43;;
2896;SDS011;1458;49.728;9.228;2023-12-20T03:47:05;0.40;;;0.40;;
2896;SDS011;1458;49.728;9.228;2023-12-20T03:49:34;0.40;;;0.40;;
2896;SDS011;1458;49.728;9.228;2023-12-20T03:52:02;0.40;;;0.40;;
2896;SDS011;1458;49.728;9.228;2023-12-20T03:54:31;0.40;;;0.40;;
2896;SDS011;1458;49.728;9.228;2023-12-20T03:57:02;0.40;;;0.40;;
2896;SDS011;1458;49.728;9.228;2023-12-20T03:59:34;0.50;;;0.50;;
2896;SDS011;1458;49.728;9.228;2023-12-20T04:02:02;0.40;;;0.40;;
2896;SDS011;1458;49.728;9.228;2023-12-20T04:04:30;0.60;;;0.60;;
2896;SDS011;1458;49.728;9.228;2023-12-20T04:06:59;0.40;;;0.40;;
2896;SDS011;1458;49.728;9.228;2023-12-20T04:09:26;0.40;;;0.40;;
2896;SDS011;1458;49.728;9.228;2023-12-20T04:11:54;0.50;;;0.50;;
2896;SDS011;1458;49.728;9.228;2023-12-20T04:14:21;0.50;;;0.50;;
2896;SDS011;1458;49.728;9.228;2023-12-20T04:16:50;0.40;;;0.40;;
2896;SDS011;1458;49.728;9.228;2023-12-20T04:19:17;0.40;;;0.40;;
2896;SDS011;1458;49.728;9.228;2023-12-20T04:21:45;0.40;;;0.40;;
2896;SDS011;1458;49.728;9.228;2023-12-20T04:24:14;0.40;;;0.40;;
2896;SDS011;1458;49.728;9.228;2023-12-20T04:26:41;0.40;;;0.40;;
2896;SDS011;1458;49.728;9.228;2023-12-20T04:29:15;0.40;;;0.40;;
2896;SDS011;1458;49.728;9.228;2023-12-20T04:31:42;0.43;;;0.43;;
2896;SDS011;1458;49.728;9.228;2023-12-20T04:34:09;0.40;;;0.40;;
2896;SDS011;1458;49.728;9.228;2023-12-20T04:36:37;0.40;;;0.40;;
2896;SDS011;1458;49.728;9.228;2023-12-20T04:39:04;0.50;;;0.50;;
2896;SDS011;1458;49.728;9.228;2023-12-20T04:41:33;0.40;;;0.40;;
2896;SDS011;1458;49.728;9.228;2023-12-20T04:44:00;0.40;;;0.40;;
2896;SDS011;1458;49.728;9.228;2023-12-20T04:46:28;0.40;;;0.40;;
2896;SDS011;1458;49.728;9.228;2023-12-20T04:48:56;0.40;;;0.40;;
2896;SDS011;1458;49.728;9.228;2023-12-20T04:51:23;0.40;;;0.40;;
2896;SDS011;1458;49.728;9.228;2023-12-20T04:53:51;0.40;;;0.40;;
2896;SDS011;1458;49.728;9.228;2023-12-20T04:56:18;0.40;;;0.40;;
2896;SDS011;1458;49.728;9.228;2023-12-20T04:58:47;0.40;;;0.40;;
2896;SDS011;1458;49.728;9.228;2023-12-20T05:01:14;0.40;;;0.40;;
2896;SDS011;1458;49.728;9.228;2023-12-20T05:03:42;0.40;;;0.40;;
2896;SDS011;1458;49.728;9.228;2023-12-20T05:06:09;0.40;;;0.40;;
2896;SDS011;1458;49.728;9.228;2023-12-20T05:08:37;0.40;;;0.40;;
2896;SDS011;1458;49.728;9.228;2023-12-20T05:11:04;0.40;;;0.40;;
2896;SDS011;1458;49.728;9.228;2023-12-20T05:13:32;0.53;;;0.53;;
2896;SDS011;1458;49.728;9.228;2023-12-20T05:16:01;0.40;;;0.40;;
2896;SDS011;1458;49.728;9.228;2023-12-20T05:18:29;0.40;;;0.40;;
2896;SDS011;1458;49.728;9.228;2023-12-20T05:20:57;0.40;;;0.40;;
2896;SDS011;1458;49.728;9.228;2023-12-20T05:23:25;0.40;;;0.40;;
2896;SDS011;1458;49.728;9.228;2023-12-20T05:25:52;0.60;;;0.60;;
2896;SDS011;1458;49.728;9.228;2023-12-20T05:28:19;0.50;;;0.50;;
2896;SDS011;1458;49.728;9.228;2023-12-20T05:30:47;0.40;;;0.40;;
2896;SDS011;1458;49.728;9.228;2023-12-20T05:33:16;0.40;;;0.40;;
2896;SDS011;1458;49.728;9.228;2023-12-20T05:35:43;0.53;;;0.53;;
2896;SDS011;1458;49.728;9.228;2023-12-20T05:38:11;0.40;;;0.40;;
2896;SDS011;1458;49.728;9.228;2023-12-20T05:40:38;0.50;;;0.50;;
2896;SDS011;1458;49.728;9.228;2023-12-20T05:43:06;0.47;;;0.47;;
2896;SDS011;1458;49.728;9.228;2023-12-20T05:45:33;0.40;;;0.40;;
2896;SDS011;1458;49.728;9.228;2023-12-20T05:48:01;0.40;;;0.40;;
2896;SDS011;1458;49.728;9.228;2023-12-20T05:50:31;0.40;;;0.40;;
2896;SDS011;1458;49.728;9.228;2023-12-20T05:53:00;0.40;;;0.40;;
2896;SDS011;1458;49.728;9.228;2023-12-20T05:55:27;0.40;;;0.40;;
2896;SDS011;1458;49.728;9.228;2023-12-20T05:57:54;0.60;;;0.60;;
2896;SDS011;1458;49.728;9.228;2023-12-20T06:00:24;0.47;;;0.47;;
2896;SDS011;1458;49.728;9.228;2023-12-20T06:02:52;0.40;;;0.40;;
2896;SDS011;1458;49.728;9.228;2023-12-20T06:05:20;0.40;;;0.40;;
2896;SDS011;1458;49.728;9.228;2023-12-20T06:07:49;0.40;;;0.40;;
2896;SDS011;1458;49.728;9.228;2023-12-20T06:10:16;0.50;;;0.50;;
2896;SDS011;1458;49.728;9.228;2023-12-20T06:12:44;0.40;;;0.40;;
2896;SDS011;1458;49.728;9.228;2023-12-20T06:15:15;0.40;;;0.40;;
2896;SDS011;1458;49.728;9.228;2023-12-20T06:17:42;0.40;;;0.40;;
2896;SDS011;1458;49.728;9.228;2023-12-20T06:20:12;0.40;;;0.40;;
2896;SDS011;1458;49.728;9.228;2023-12-20T06:22:39;0.50;;;0.50;;
2896;SDS011;1458;49.728;9.228;2023-12-20T06:25:08;0.40;;;0.40;;
2896;SDS011;1458;49.728;9.228;2023-12-20T06:27:36;0.40;;;0.40;;
2896;SDS011;1458;49.728;9.228;2023-12-20T06:30:03;0.40;;;0.40;;
2896;SDS011;1458;49.728;9.228;2023-12-20T06:32:34;0.40;;;0.40;;
2896;SDS011;1458;49.728;9.228;2023-12-20T06:35:03;0.50;;;0.50;;
2896;SDS011;1458;49.728;9.228;2023-12-20T06:37:32;0.40;;;0.40;;
2896;SDS011;1458;49.728;9.228;2023-12-20T06:39:59;0.40;;;0.40;;
2896;SDS011;1458;49.728;9.228;2023-12-20T06:42:28;0.40;;;0.40;;
2896;SDS011;1458;49.728;9.228;2023-12-20T06:44:56;0.40;;;0.40;;
2896;SDS011;1458;49.728;9.228;2023-12-20T06:47:24;0.40;;;0.40;;
2896;SDS011;1458;49.728;9.228;2023-12-20T06:49:53;0.40;;;0.40;;
2896;SDS011;1458;49.728;9.228;2023-12-20T06:52:20;0.50;;;0.50;;
2896;SDS011;1458;49.728;9.228;2023-12-20T06:54:47;0.53;;;0.53;;
2896;SDS011;1458;49.728;9.228;2023-12-20T06:57:15;0.50;;;0.50;;
2896;SDS011;1458;49.728;9.228;2023-12-20T06:59:45;0.50;;;0.50;;
2896;SDS011;1458;49.728;9.228;2023-12-20T07:02:12;0.60;;;0.60;;
2896;SDS011;1458;49.728;9.228;2023-12-20T07:04:40;0.50;;;0.50;;
2896;SDS011;1458;49.728;9.228;2023-12-20T07:07:08;0.60;;;0.60;;
2896;SDS011;1458;49.728;9.228;2023-12-20T07:09:35;0.60;;;0.60;;
2896;SDS011;1458;49.728;9.228;2023-12-20T07:12:04;0.50;;;0.50;;
2896;SDS011;1458;49.728;9.228;2023-12-20T07:14:32;0.40;;;0.40;;
2896;SDS011;1458;49.728;9.228;2023-12-20T07:17:04;0.70;;;0.70;;
2896;SDS011;1458;49.728;9.228;2023-12-20T07:19:36;0.50;;;0.50;;
2896;SDS011;1458;49.728;9.228;2023-12-20T07:22:05;0.50;;;0.50;;
2896;SDS011;1458;49.728;9.228;2023-12-20T07:24:33;0.53;;;0.53;;
2896;SDS011;1458;49.728;9.228;2023-12-20T07:27:01;0.50;;;0.50;;
2896;SDS011;1458;49.728;9.228;2023-12-20T07:29:29;0.50;;;0.50;;
2896;SDS011;1458;49.728;9.228;2023-12-20T07:31:57;0.50;;;0.50;;
2896;SDS011;1458;49.728;9.228;2023-12-20T07:34:26;0.60;;;0.60;;
2896;SDS011;1458;49.728;9.228;2023-12-20T07:36:53;0.57;;;0.57;;
2896;SDS011;1458;49.728;9.228;2023-12-20T07:39:21;0.50;;;0.50;;
2896;SDS011;1458;49.728;9.228;2023-12-20T07:41:48;0.60;;;0.60;;
2896;SDS011;1458;49.728;9.228;2023-12-20T07:44:16;0.50;;;0.50;;
2896;SDS011;1458;49.728;9.228;2023-12-20T07:46:44;0.40;;;0.40;;
2896;SDS011;1458;49.728;9.228;2023-12-20T07:49:11;0.63;;;0.63;;
2896;SDS011;1458;49.728;9.228;2023-12-20T07:51:40;0.40;;;0.40;;
2896;SDS011;1458;49.728;9.228;2023-12-20T07:54:08;0.40;;;0.40;;
2896;SDS011;1458;49.728;9.228;2023-12-20T07:56:35;0.50;;;0.50;;
2896;SDS011;1458;49.728;9.228;2023-12-20T07:59:05;0.40;;;0.40;;
2896;SDS011;1458;49.728;9.228;2023-12-20T08:01:32;0.50;;;0.50;;
2896;SDS011;1458;49.728;9.228;2023-12-20T08:04:00;0.47;;;0.47;;
2896;SDS011;1458;49.728;9.228;2023-12-20T08:06:27;0.50;;;0.50;;
2896;SDS011;1458;49.728;9.228;2023-12-20T08:08:56;0.47;;;0.47;;
2896;SDS011;1458;49.728;9.228;2023-12-20T08:11:24;0.40;;;0.40;;
2896;SDS011;1458;49.728;9.228;2023-12-20T08:13:51;0.40;;;0.40;;
2896;SDS011;1458;49.728;9.228;2023-12-20T08:16:19;0.47;;;0.47;;
2896;SDS011;1458;49.728;9.228;2023-12-20T08:18:47;0.47;;;0.47;;
2896;SDS011;1458;49.728;9.228;2023-12-20T08:21:14;0.50;;;0.50;;
2896;SDS011;1458;49.728;9.228;2023-12-20T08:23:45;0.70;;;0.70;;
2896;SDS011;1458;49.728;9.228;2023-12-20T08:26:18;0.50;;;0.50;;
2896;SDS011;1458;49.728;9.228;2023-12-20T08:28:47;0.40;;;0.40;;
2896;SDS011;1458;49.728;9.228;2023-12-20T08:31:15;0.50;;;0.50;;
2896;SDS011;1458;49.728;9.228;2023-12-20T08:33:47;0.50;;;0.50;;
2896;SDS011;1458;49.728;9.228;2023-12-20T08:36:15;0.47;;;0.47;;
2896;SDS011;1458;49.728;9.228;2023-12-20T08:38:43;0.50;;;0.50;;
2896;SDS011;1458;49.728;9.228;2023-12-20T08:41:12;0.60;;;0.60;;
2896;SDS011;1458;49.728;9.228;2023-12-20T08:43:41;0.50;;;0.50;;
2896;SDS011;1458;49.728;9.228;2023-12-20T08:46:09;0.50;;;0.50;;
2896;SDS011;1458;49.728;9.228;2023-12-20T08:48:36;0.50;;;0.50;;
2896;SDS011;1458;49.728;9.228;2023-12-20T08:51:04;0.50;;;0.50;;
2896;SDS011;1458;49.728;9.228;2023-12-20T08:53:33;0.60;;;0.60;;
2896;SDS011;1458;49.728;9.228;2023-12-20T08:56:01;0.70;;;0.70;;
2896;SDS011;1458;49.728;9.228;2023-12-20T08:58:29;0.60;;;0.60;;
2896;SDS011;1458;49.728;9.228;2023-12-20T09:00:58;0.60;;;0.60;;
2896;SDS011;1458;49.728;9.228;2023-12-20T09:03:25;0.60;;;0.60;;
2896;SDS011;1458;49.728;9.228;2023-12-20T09:05:52;0.60;;;0.60;;
2896;SDS011;1458;49.728;9.228;2023-12-20T09:08:20;0.60;;;0.60;;
2896;SDS011;1458;49.728;9.228;2023-12-20T09:10:47;0.70;;;0.70;;
2896;SDS011;1458;49.728;9.228;2023-12-20T09:13:15;0.77;;;0.77;;
2896;SDS011;1458;49.728;9.228;2023-12-20T09:15:42;0.80;;;0.80;;
2896;SDS011;1458;49.728;9.228;2023-12-20T09:18:11;0.60;;;0.60;;
2896;SDS011;1458;49.728;9.228;2023-12-20T09:20:38;0.60;;;0.60;;
2896;SDS011;1458;49.728;9.228;2023-12-20T09:23:06;0.60;;;0.60;;
2896;SDS011;1458;49.728;9.228;2023-12-20T09:25:33;0.73;;;0.73;;
2896;SDS011;1458;49.728;9.228;2023-12-20T09:28:01;0.60;;;0.60;;
2896;SDS011;1458;49.728;9.228;2023-12-20T09:30:29;0.60;;;0.60;;
2896;SDS011;1458;49.728;9.228;2023-12-20T09:32:57;0.77;;;0.77;;
2896;SDS011;1458;49.728;9.228;2023-12-20T09:35:26;0.60;;;0.60;;
2896;SDS011;1458;49.728;9.228;2023-12-20T09:37:53;0.60;;;0.60;;
2896;SDS011;1458;49.728;9.228;2023-12-20T09:40:20;0.60;;;0.60;;
2896;SDS011;1458;49.728;9.228;2023-12-20T09:42:55;0.80;;;0.80;;
2896;SDS011;1458;49.728;9.228;2023-12-20T09:45:24;0.63;;;0.63;;
2896;SDS011;1458;49.728;9.228;2023-12-20T09:47:52;0.77;;;0.77;;
2896;SDS011;1458;49.728;9.228;2023-12-20T09:50:20;0.70;;;0.70;;
2896;SDS011;1458;49.728;9.228;2023-12-20T09:52:50;0.70;;;0.70;;
2896;SDS011;1458;49.728;9.228;2023-12-20T09:55:21;0.70;;;0.70;;
2896;SDS011;1458;49.728;9.228;2023-12-20T09:57:49;0.70;;;0.70;;
2896;SDS011;1458;49.728;9.228;2023-12-20T10:00:17;0.70;;;0.70;;
2896;SDS011;1458;49.728;9.228;2023-12-20T10:02:45;0.70;;;0.70;;
2896;SDS011;1458;49.728;9.228;2023-12-20T10:05:26;0.70;;;0.70;;
2896;SDS011;1458;49.728;9.228;2023-12-20T10:07:56;0.70;;;0.70;;
2896;SDS011;1458;49.728;9.228;2023-12-20T10:10:24;0.70;;;0.70;;
2896;SDS011;1458;49.728;9.228;2023-12-20T10:13:01;0.70;;;0.70;;
2896;SDS011;1458;49.728;9.228;2023-12-20T10:15:31;0.73;;;0.73;;
2896;SDS011;1458;49.728;9.228;2023-12-20T10:17:59;0.80;;;0.80;;
2896;SDS011;1458;49.728;9.228;2023-12-20T10:20:27;0.70;;;0.70;;
2896;SDS011;1458;49.728;9.228;2023-12-20T10:22:56;0.70;;;0.70;;
2896;SDS011;1458;49.728;9.228;2023-12-20T10:25:25;0.80;;;0.80;;
2896;SDS011;1458;49.728;9.228;2023-12-20T10:28:08;0.70;;;0.70;;
2896;SDS011;1458;49.728;9.228;2023-12-20T10:30:36;0.63;;;0.63;;
2896;SDS011;1458;49.728;9.228;2023-12-20T10:33:05;0.70;;;0.70;;
2896;SDS011;1458;49.728;9.228;2023-12-20T10:35:34;0.63;;;0.63;;
2896;SDS011;1458;49.728;9.228;2023-12-20T10:38:04;0.80;;;0.80;;
2896;SDS011;1458;49.728;9.228;2023-12-20T10:40:34;0.60;;;0.60;;
2896;SDS011;1458;49.728;9.228;2023-12-20T10:43:03;0.77;;;0.77;;
2896;SDS011;1458;49.728;9.228;2023-12-20T10:45:31;0.80;;;0.80;;
2896;SDS011;1458;49.728;9.228;2023-12-20T10:47:59;0.80;;;0.80;;
2896;SDS011;1458;49.728;9.228;2023-12-20T10:50:28;0.60;;;0.60;;
2896;SDS011;1458;49.728;9.228;2023-12-20T10:52:57;0.80;;;0.80;;
2896;SDS011;1458;49.728;9.228;2023-12-20T10:55:27;0.70;;;0.70;;
2896;SDS011;1458;49.728;9.228;2023-12-20T10:57:58;0.80;;;0.80;;
2896;SDS011;1458;49.728;9.228;2023-12-20T11:00:29;0.90;;;0.90;;
2896;SDS011;1458;49.728;9.228;2023-12-20T11:03:00;0.80;;;0.80;;
2896;SDS011;1458;49.728;9.228;2023-12-20T11:05:31;1.10;;;1.10;;
2896;SDS011;1458;49.728;9.228;2023-12-20T11:08:11;0.97;;;0.97;;
2896;SDS011;1458;49.728;9.228;2023-12-20T11:10:47;1.00;;;1.00;;
2896;SDS011;1458;49.728;9.228;2023-12-20T11:13:23;1.00;;;1.00;;
2896;SDS011;1458;49.728;9.228;2023-12-20T11:15:57;1.00;;;1.00;;
2896;SDS011;1458;49.728;9.228;2023-12-20T11:18:28;1.10;;;1.10;;
2896;SDS011;1458;49.728;9.228;2023-12-20T11:21:00;1.10;;;1.10;;
2896;SDS011;1458;49.728;9.228;2023-12-20T11:23:29;1.10;;;1.10;;
2896;SDS011;1458;49.728;9.228;2023-12-20T11:25:59;1.10;;;1.10;;
2896;SDS011;1458;49.728;9.228;2023-12-20T11:28:29;1.20;;;1.20;;
2896;SDS011;1458;49.728;9.228;2023-12-20T11:30:57;1.20;;;1.20;;
2896;SDS011;1458;49.728;9.228;2023-12-20T11:33:29;0.93;;;0.93;;
2896;SDS011;1458;49.728;9.228;2023-12-20T11:35:59;1.10;;;1.10;;
2896;SDS011;1458;49.728;9.228;2023-12-20T11:38:28;1.30;;;1.30;;
2896;SDS011;1458;49.728;9.228;2023-12-20T11:41:06;1.00;;;1.00;;
2896;SDS011;1458;49.728;9.228;2023-12-20T11:43:35;1.40;;;1.40;;
2896;SDS011;1458;49.728;9.228;2023-12-20T11:46:04;1.13;;;1.13;;
2896;SDS011;1458;49.728;9.228;2023-12-20T11:48:33;1.20;;;1.20;;
2896;SDS011;1458;49.728;9.228;2023-12-20T11:51:08;1.10;;;1.10;;
2896;SDS011;1458;49.728;9.228;2023-12-20T11:53:36;1.00;;;1.00;;
2896;SDS011;1458;49.728;9.228;2023-12-20T11:56:05;1.10;;;1.10;;
2896;SDS011;1458;49.728;9.228;2023-12-20T11:58:33;1.10;;;1.10;;
2896;SDS011;1458;49.728;9.228;2023-12-20T12:01:02;1.30;;;1.30;;
2896;SDS011;1458;49.728;9.228;2023-12-20T12:03:32;1.40;;;1.40;;
2896;SDS011;1458;49.728;9.228;2023-12-20T12:06:00;1.57;;;1.57;;
2896;SDS011;1458;49.728;9.228;2023-12-20T12:08:29;1.40;;;1.40;;
2896;SDS011;1458;49.728;9.228;2023-12-20T12:10:57;1.40;;;1.40;;
2896;SDS011;1458;49.728;9.228;2023-12-20T12:13:26;1.40;;;1.40;;
2896;SDS011;1458;49.728;9.228;2023-12-20T12:15:54;1.30;;;1.30;;
2896;SDS011;1458;49.728;9.228;2023-12-20T12:18:22;1.30;;;1.30;;
2896;SDS011;1458;49.728;9.228;2023-12-20T12:20:50;1.50;;;1.50;;
2896;SDS011;1458;49.728;9.228;2023-12-20T12:23:27;1.40;;;1.40;;
2896;SDS011;1458;49.728;9.228;2023-12-20T12:25:54;1.40;;;1.40;;
2896;SDS011;1458;49.728;9.228;2023-12-20T12:28:26;1.30;;;1.30;;
2896;SDS011;1458;49.728;9.228;2023-12-20T12:30:57;1.30;;;1.30;;
2896;SDS011;1458;49.728;9.228;2023-12-20T12:33:25;1.30;;;1.30;;
2896;SDS011;1458;49.728;9.228;2023-12-20T12:35:52;1.73;;;1.73;;
2896;SDS011;1458;49.728;9.228;2023-12-20T12:38:20;1.50;;;1.50;;
2896;SDS011;1458;49.728;9.228;2023-12-20T12:40:49;1.30;;;1.30;;
2896;SDS011;1458;49.728;9.228;2023-12-20T12:43:18;1.43;;;1.43;;
2896;SDS011;1458;49.728;9.228;2023-12-20T12:45:49;1.50;;;1.50;;
2896;SDS011;1458;49.728;9.228;2023-12-20T12:48:18;1.50;;;1.50;;
2896;SDS011;1458;49.728;9.228;2023-12-20T12:50:46;1.70;;;1.70;;
2896;SDS011;1458;49.728;9.228;2023-12-20T12:53:14;1.50;;;1.50;;
2896;SDS011;1458;49.728;9.228;2023-12-20T12:55:41;1.60;;;1.60;;
2896;SDS011;1458;49.728;9.228;2023-12-20T12:58:09;1.50;;;1.50;;
2896;SDS011;1458;49.728;9.228;2023-12-20T13:00:36;1.80;;;1.80;;
2896;SDS011;1458;49.728;9.228;2023-12-20T13:03:06;1.80;;;1.80;;
2896;SDS011;1458;49.728;9.228;2023-12-20T13:05:33;1.60;;;1.60;;
2896;SDS011;1458;49.728;9.228;2023-12-20T13:08:01;1.67;;;1.67;;
2896;SDS011;1458;49.728;9.228;2023-12-20T13:10:29;1.70;;;1.70;;
2896;SDS011;1458;49.728;9.228;2023-12-20T13:12:58;1.60;;;1.60;;
2896;SDS011;1458;49.728;9.228;2023-12-20T13:15:25;1.50;;;1.50;;
2896;SDS011;1458;49.728;9.228;2023-12-20T13:17:54;1.77;;;1.77;;
2896;SDS011;1458;49.728;9.228;2023-12-20T13:20:23;1.40;;;1.40;;
2896;SDS011;1458;49.728;9.228;2023-12-20T13:22:50;1.50;;;1.50;;
2896;SDS011;1458;49.728;9.228;2023-12-20T13:25:19;1.33;;;1.33;;
2896;SDS011;1458;49.728;9.228;2023-12-20T13:27:46;1.40;;;1.40;;
2896;SDS011;1458;49.728;9.228;2023-12-20T13:30:15;1.30;;;1.30;;
2896;SDS011;1458;49.728;9.228;2023-12-20T13:32:44;1.20;;;1.20;;
2896;SDS011;1458;49.728;9.228;2023-12-20T13:35:11;1.20;;;1.20;;
2896;SDS011;1458;49.728;9.228;2023-12-20T13:37:40;1.20;;;1.20;;
2896;SDS011;1458;49.728;9.228;2023-12-20T13:40:10;1.10;;;1.10;;
2896;SDS011;1458;49.728;9.228;2023-12-20T13:42:38;1.27;;;1.27;;
2896;SDS011;1458;49.728;9.228;2023-12-20T13:45:07;1.30;;;1.30;;
2896;SDS011;1458;49.728;9.228;2023-12-20T13:47:35;1.20;;;1.20;;
2896;SDS011;1458;49.728;9.228;2023-12-20T13:50:02;1.27;;;1.27;;
2896;SDS011;1458;49.728;9.228;2023-12-20T13:52:30;1.30;;;1.30;;
2896;SDS011;1458;49.728;9.228;2023-12-20T13:55:01;1.20;;;1.20;;
2896;SDS011;1458;49.728;9.228;2023-12-20T13:57:30;1.20;;;1.20;;
2896;SDS011;1458;49.728;9.228;2023-12-20T13:59:58;1.40;;;1.40;;
2896;SDS011;1458;49.728;9.228;2023-12-20T14:02:26;1.30;;;1.30;;
2896;SDS011;1458;49.728;9.228;2023-12-20T14:04:54;1.10;;;1.10;;
2896;SDS011;1458;49.728;9.228;2023-12-20T14:07:21;1.10;;;1.10;;
2896;SDS011;1458;49.728;9.228;2023-12-20T14:09:49;1.27;;;1.27;;
2896;SDS011;1458;49.728;9.228;2023-12-20T14:12:19;1.20;;;1.20;;
2896;SDS011;1458;49.728;9.228;2023-12-20T14:14:45;1.20;;;1.20;;
2896;SDS011;1458;49.728;9.228;2023-12-20T14:17:13;1.07;;;1.07;;
2896;SDS011;1458;49.728;9.228;2023-12-20T14:19:40;1.27;;;1.27;;
2896;SDS011;1458;49.728;9.228;2023-12-20T14:22:09;1.20;;;1.20;;
2896;SDS011;1458;49.728;9.228;2023-12-20T14:24:42;1.20;;;1.20;;
2896;SDS011;1458;49.728;9.228;2023-12-20T14:27:11;1.10;;;1.10;;
2896;SDS011;1458;49.728;9.228;2023-12-20T14:29:40;1.40;;;1.40;;
2896;SDS011;1458;49.728;9.228;2023-12-20T14:32:08;1.30;;;1.30;;
2896;SDS011;1458;49.728;9.228;2023-12-20T14:34:35;1.43;;;1.43;;
2896;SDS011;1458;49.728;9.228;2023-12-20T14:37:03;1.20;;;1.20;;
2896;SDS011;1458;49.728;9.228;2023-12-20T14:39:31;1.30;;;1.30;;
2896;SDS011;1458;49.728;9.228;2023-12-20T14:41:58;1.40;;;1.40;;
2896;SDS011;1458;49.728;9.228;2023-12-20T14:44:27;1.20;;;1.20;;
2896;SDS011;1458;49.728;9.228;2023-12-20T14:46:58;1.40;;;1.40;;
2896;SDS011;1458;49.728;9.228;2023-12-20T14:49:27;1.30;;;1.30;;
2896;SDS011;1458;49.728;9.228;2023-12-20T14:51:55;1.30;;;1.30;;
2896;SDS011;1458;49.728;9.228;2023-12-20T14:54:23;1.50;;;1.50;;
2896;SDS011;1458;49.728;9.228;2023-12-20T14:56:52;1.40;;;1.40;;
2896;SDS011;1458;49.728;9.228;2023-12-20T14:59:19;1.30;;;1.30;;
2896;SDS011;1458;49.728;9.228;2023-12-20T15:01:47;1.23;;;1.23;;
2896;SDS011;1458;49.728;9.228;2023-12-20T15:04:17;1.00;;;1.00;;
2896;SDS011;1458;49.728;9.228;2023-12-20T15:06:51;1.10;;;1.10;;
2896;SDS011;1458;49.728;9.228;2023-12-20T15:09:24;1.10;;;1.10;;
2896;SDS011;1458;49.728;9.228;2023-12-20T15:11:56;1.00;;;1.00;;
2896;SDS011;1458;49.728;9.228;2023-12-20T15:14:25;1.00;;;1.00;;
2896;SDS011;1458;49.728;9.228;2023-12-20T15:16:53;1.10;;;1.10;;
2896;SDS011;1458;49.728;9.228;2023-12-20T15:19:23;1.00;;;1.00;;
2896;SDS011;1458;49.728;9.228;2023-12-20T15:21:51;1.10;;;1.10;;